sensor_id;sensor_type;location;lat;lon;timestamp;P1;durP1;ratioP1;P2;durP2;ratioP2
46505;SDS011;32220;49.808;9.968;2022-11-15T10:00:47;7.30;;;6.57;;
46505;SDS011;32220;49.808;9.968;2022-11-15T10:03:23;6.67;;;6.00;;
46505;SDS011;32220;49.808;9.968;2022-11-15T10:05:57;6.67;;;5.87;;
46505;SDS011;32220;49.808;9.968;2022-11-15T10:08:31;5.57;;;4.93;;
46505;SDS011;32220;49.808;9.968;2022-11-15T10:11:08;5.73;;;4.50;;
46505;SDS011;32220;49.808;9.968;2022-11-15T10:13:40;4.93;;;4.43;;
46505;SDS011;32220;49.808;9.968;2022-11-15T10:16:16;6.33;;;4.40;;
46505;SDS011;32220;49.808;9.968;2022-11-15T10:19:06;4.30;;;4.00;;
46505;SDS011;32220;49.808;9.968;2022-11-15T10:21:46;5.13;;;4.63;;
46505;SDS011;32220;49.808;9.968;2022-11-15T10:24:28;4.20;;;3.80;;
46505;SDS011;32220;49.808;9.968;2022-11-15T10:27:00;4.57;;;4.10;;
46505;SDS011;32220;49.808;9.968;2022-11-15T10:29:28;4.57;;;3.97;;
46505;SDS011;32220;49.808;9.968;2022-11-15T10:31:57;4.93;;;3.97;;
46505;SDS011;32220;49.808;9.968;2022-11-15T10:34:24;3.83;;;3.53;;
46505;SDS011;32220;49.808;9.968;2022-11-15T10:36:56;5.13;;;3.73;;
46505;SDS011;32220;49.808;9.968;2022-11-15T10:39:24;4.83;;;4.23;;
46505;SDS011;32220;49.808;9.968;2022-11-15T10:41:53;4.00;;;3.70;;
46505;SDS011;32220;49.808;9.968;2022-11-15T10:44:25;4.67;;;3.83;;
46505;SDS011;32220;49.808;9.968;2022-11-15T10:47:07;6.13;;;3.80;;
46505;SDS011;32220;49.808;9.968;2022-11-15T10:49:52;3.33;;;3.03;;
46505;SDS011;32220;49.808;9.968;2022-11-15T10:52:24;4.00;;;3.50;;
46505;SDS011;32220;49.808;9.968;2022-11-15T10:54:54;4.00;;;3.57;;
46505;SDS011;32220;49.808;9.968;2022-11-15T10:57:27;4.97;;;4.20;;
46505;SDS011;32220;49.808;9.968;2022-11-15T10:59:57;3.90;;;3.60;;
46505;SDS011;32220;49.808;9.968;2022-11-15T11:02:30;4.27;;;3.87;;
46505;SDS011;32220;49.808;9.968;2022-11-15T11:04:59;4.40;;;3.63;;
46505;SDS011;32220;49.808;9.968;2022-11-15T11:07:29;3.67;;;3.33;;
46505;SDS011;32220;49.808;9.968;2022-11-15T11:09:58;4.23;;;3.50;;
46505;SDS011;32220;49.808;9.968;2022-11-15T11:12:29;4.70;;;3.40;;
46505;SDS011;32220;49.808;9.968;2022-11-15T11:14:58;4.10;;;3.53;;
46505;SDS011;32220;49.808;9.968;2022-11-15T11:20:20;3.53;;;3.23;;
46505;SDS011;32220;49.808;9.968;2022-11-15T11:23:02;3.30;;;2.83;;
46505;SDS011;32220;49.808;9.968;2022-11-15T11:25:42;4.10;;;2.97;;
46505;SDS011;32220;49.808;9.968;2022-11-15T11:28:21;3.33;;;3.03;;
46505;SDS011;32220;49.808;9.968;2022-11-15T11:31:03;3.27;;;2.90;;
46505;SDS011;32220;49.808;9.968;2022-11-15T11:33:39;3.03;;;2.30;;
46505;SDS011;32220;49.808;9.968;2022-11-15T11:36:15;3.33;;;2.77;;
46505;SDS011;32220;49.808;9.968;2022-11-15T11:38:50;3.27;;;2.70;;
46505;SDS011;32220;49.808;9.968;2022-11-15T11:41:27;2.90;;;2.60;;
46505;SDS011;32220;49.808;9.968;2022-11-15T11:44:10;3.20;;;2.73;;
46505;SDS011;32220;49.808;9.968;2022-11-15T11:46:47;4.43;;;2.97;;
46505;SDS011;32220;49.808;9.968;2022-11-15T11:49:21;4.97;;;3.03;;
46505;SDS011;32220;49.808;9.968;2022-11-15T11:51:56;6.13;;;3.00;;
46505;SDS011;32220;49.808;9.968;2022-11-15T11:54:31;4.70;;;3.37;;
46505;SDS011;32220;49.808;9.968;2022-11-15T11:57:06;4.40;;;2.50;;
46505;SDS011;32220;49.808;9.968;2022-11-15T11:59:41;3.00;;;2.63;;
46505;SDS011;32220;49.808;9.968;2022-11-15T12:02:15;3.73;;;2.90;;
46505;SDS011;32220;49.808;9.968;2022-11-15T12:04:49;3.00;;;2.53;;
46505;SDS011;32220;49.808;9.968;2022-11-15T12:07:20;3.13;;;2.77;;
46505;SDS011;32220;49.808;9.968;2022-11-15T12:09:52;4.07;;;2.87;;
46505;SDS011;32220;49.808;9.968;2022-11-15T12:12:27;4.40;;;3.13;;
46505;SDS011;32220;49.808;9.968;2022-11-15T12:15:02;3.10;;;2.43;;
46505;SDS011;32220;49.808;9.968;2022-11-15T12:17:38;3.53;;;2.33;;
46505;SDS011;32220;49.808;9.968;2022-11-15T12:20:15;3.17;;;2.40;;
46505;SDS011;32220;49.808;9.968;2022-11-15T12:22:47;2.97;;;2.47;;
46505;SDS011;32220;49.808;9.968;2022-11-15T12:25:21;6.00;;;3.03;;
46505;SDS011;32220;49.808;9.968;2022-11-15T12:27:54;2.83;;;2.53;;
46505;SDS011;32220;49.808;9.968;2022-11-15T12:30:27;4.37;;;2.50;;
46505;SDS011;32220;49.808;9.968;2022-11-15T12:33:09;3.80;;;3.03;;
46505;SDS011;32220;49.808;9.968;2022-11-15T12:36:08;3.67;;;3.30;;
46505;SDS011;32220;49.808;9.968;2022-11-15T12:38:50;3.30;;;2.63;;
46505;SDS011;32220;49.808;9.968;2022-11-15T12:41:21;3.93;;;3.00;;
46505;SDS011;32220;49.808;9.968;2022-11-15T12:43:50;5.13;;;3.57;;
46505;SDS011;32220;49.808;9.968;2022-11-15T12:46:22;3.23;;;2.93;;
46505;SDS011;32220;49.808;9.968;2022-11-15T12:49:41;5.97;;;3.47;;
46505;SDS011;32220;49.808;9.968;2022-11-15T12:52:11;5.03;;;3.97;;
46505;SDS011;32220;49.808;9.968;2022-11-15T12:54:58;4.33;;;3.93;;
46505;SDS011;32220;49.808;9.968;2022-11-15T12:57:30;5.37;;;3.77;;
46505;SDS011;32220;49.808;9.968;2022-11-15T13:00:00;4.20;;;3.80;;
46505;SDS011;32220;49.808;9.968;2022-11-15T13:02:33;4.20;;;3.80;;
46505;SDS011;32220;49.808;9.968;2022-11-15T13:08:36;6.90;;;3.90;;
46505;SDS011;32220;49.808;9.968;2022-11-15T13:14:46;8.10;;;4.60;;
46505;SDS011;32220;49.808;9.968;2022-11-15T13:20:17;5.40;;;4.40;;
46505;SDS011;32220;49.808;9.968;2022-11-15T13:22:48;5.57;;;4.73;;
46505;SDS011;32220;49.808;9.968;2022-11-15T13:25:40;6.07;;;4.43;;
46505;SDS011;32220;49.808;9.968;2022-11-15T13:28:21;5.23;;;4.20;;
46505;SDS011;32220;49.808;9.968;2022-11-15T13:30:55;5.73;;;4.43;;
46505;SDS011;32220;49.808;9.968;2022-11-15T13:33:25;5.17;;;4.23;;
46505;SDS011;32220;49.808;9.968;2022-11-15T13:35:58;5.80;;;4.53;;
46505;SDS011;32220;49.808;9.968;2022-11-15T13:38:28;4.77;;;3.80;;
46505;SDS011;32220;49.808;9.968;2022-11-15T13:40:59;4.67;;;4.20;;
46505;SDS011;32220;49.808;9.968;2022-11-15T13:43:38;4.83;;;4.33;;
46505;SDS011;32220;49.808;9.968;2022-11-15T13:46:06;5.80;;;5.20;;
46505;SDS011;32220;49.808;9.968;2022-11-15T13:48:38;6.73;;;4.27;;
46505;SDS011;32220;49.808;9.968;2022-11-15T13:51:07;6.27;;;4.60;;
46505;SDS011;32220;49.808;9.968;2022-11-15T13:53:40;5.57;;;4.10;;
46505;SDS011;32220;49.808;9.968;2022-11-15T13:56:13;5.23;;;4.47;;
46505;SDS011;32220;49.808;9.968;2022-11-15T13:58:43;6.53;;;3.93;;
46505;SDS011;32220;49.808;9.968;2022-11-15T14:01:14;4.27;;;3.87;;
46505;SDS011;32220;49.808;9.968;2022-11-15T14:03:47;5.70;;;4.30;;
46505;SDS011;32220;49.808;9.968;2022-11-15T14:06:18;7.10;;;4.50;;
46505;SDS011;32220;49.808;9.968;2022-11-15T14:08:58;4.40;;;4.00;;
46505;SDS011;32220;49.808;9.968;2022-11-15T14:11:32;4.87;;;4.37;;
46505;SDS011;32220;49.808;9.968;2022-11-15T14:14:10;5.90;;;4.50;;
46505;SDS011;32220;49.808;9.968;2022-11-15T14:16:42;6.13;;;4.60;;
46505;SDS011;32220;49.808;9.968;2022-11-15T14:19:11;4.40;;;4.00;;
46505;SDS011;32220;49.808;9.968;2022-11-15T14:24:36;6.43;;;4.20;;
46505;SDS011;32220;49.808;9.968;2022-11-15T14:27:19;6.13;;;4.33;;
46505;SDS011;32220;49.808;9.968;2022-11-15T14:29:48;4.70;;;4.00;;
46505;SDS011;32220;49.808;9.968;2022-11-15T14:32:16;6.60;;;4.60;;
46505;SDS011;32220;49.808;9.968;2022-11-15T14:34:45;6.17;;;4.77;;
46505;SDS011;32220;49.808;9.968;2022-11-15T14:37:18;6.00;;;4.70;;
46505;SDS011;32220;49.808;9.968;2022-11-15T14:39:49;5.40;;;4.90;;
46505;SDS011;32220;49.808;9.968;2022-11-15T14:42:19;4.90;;;4.40;;
46505;SDS011;32220;49.808;9.968;2022-11-15T14:44:47;6.73;;;5.20;;
46505;SDS011;32220;49.808;9.968;2022-11-15T14:47:15;6.90;;;5.27;;
46505;SDS011;32220;49.808;9.968;2022-11-15T14:49:44;7.63;;;5.20;;
46505;SDS011;32220;49.808;9.968;2022-11-15T14:52:22;5.70;;;4.70;;
46505;SDS011;32220;49.808;9.968;2022-11-15T14:54:51;5.60;;;4.67;;
46505;SDS011;32220;49.808;9.968;2022-11-15T14:57:20;5.97;;;5.17;;
46505;SDS011;32220;49.808;9.968;2022-11-15T14:59:48;6.07;;;5.53;;
46505;SDS011;32220;49.808;9.968;2022-11-15T15:02:17;6.33;;;5.10;;
46505;SDS011;32220;49.808;9.968;2022-11-15T15:04:46;5.70;;;5.20;;
46505;SDS011;32220;49.808;9.968;2022-11-15T15:07:16;7.10;;;5.00;;
46505;SDS011;32220;49.808;9.968;2022-11-15T15:09:51;5.77;;;4.83;;
46505;SDS011;32220;49.808;9.968;2022-11-15T15:15:41;4.97;;;4.47;;
46505;SDS011;32220;49.808;9.968;2022-11-15T15:19:02;6.87;;;5.10;;
46505;SDS011;32220;49.808;9.968;2022-11-15T15:21:32;7.33;;;4.57;;
46505;SDS011;32220;49.808;9.968;2022-11-15T15:24:01;5.80;;;4.90;;
46505;SDS011;32220;49.808;9.968;2022-11-15T15:26:28;5.43;;;4.60;;
46505;SDS011;32220;49.808;9.968;2022-11-15T15:29:00;6.27;;;5.07;;
46505;SDS011;32220;49.808;9.968;2022-11-15T15:31:28;6.30;;;4.50;;
46505;SDS011;32220;49.808;9.968;2022-11-15T15:33:58;6.70;;;4.63;;
46505;SDS011;32220;49.808;9.968;2022-11-15T15:36:26;5.07;;;4.40;;
46505;SDS011;32220;49.808;9.968;2022-11-15T15:38:54;9.53;;;4.83;;
46505;SDS011;32220;49.808;9.968;2022-11-15T15:41:22;5.77;;;4.63;;
46505;SDS011;32220;49.808;9.968;2022-11-15T15:43:50;4.03;;;3.63;;
46505;SDS011;32220;49.808;9.968;2022-11-15T15:46:19;5.77;;;4.47;;
46505;SDS011;32220;49.808;9.968;2022-11-15T15:48:47;7.93;;;3.90;;
46505;SDS011;32220;49.808;9.968;2022-11-15T15:51:15;5.67;;;4.87;;
46505;SDS011;32220;49.808;9.968;2022-11-15T15:53:42;4.90;;;4.40;;
46505;SDS011;32220;49.808;9.968;2022-11-15T15:56:10;5.47;;;4.77;;
46505;SDS011;32220;49.808;9.968;2022-11-15T15:58:38;5.50;;;4.20;;
46505;SDS011;32220;49.808;9.968;2022-11-15T16:01:05;4.40;;;3.80;;
46505;SDS011;32220;49.808;9.968;2022-11-15T16:03:34;5.40;;;4.37;;
46505;SDS011;32220;49.808;9.968;2022-11-15T16:06:01;4.30;;;3.30;;
46505;SDS011;32220;49.808;9.968;2022-11-15T16:08:30;6.07;;;4.20;;
46505;SDS011;32220;49.808;9.968;2022-11-15T16:10:58;4.63;;;4.23;;
46505;SDS011;32220;49.808;9.968;2022-11-15T16:13:25;6.77;;;4.93;;
46505;SDS011;32220;49.808;9.968;2022-11-15T16:15:53;6.10;;;4.30;;
46505;SDS011;32220;49.808;9.968;2022-11-15T16:18:21;5.50;;;4.67;;
46505;SDS011;32220;49.808;9.968;2022-11-15T16:20:51;5.03;;;4.53;;
46505;SDS011;32220;49.808;9.968;2022-11-15T16:23:22;4.33;;;3.83;;
46505;SDS011;32220;49.808;9.968;2022-11-15T16:25:50;4.13;;;3.77;;
46505;SDS011;32220;49.808;9.968;2022-11-15T16:28:21;5.23;;;4.57;;
46505;SDS011;32220;49.808;9.968;2022-11-15T16:30:59;4.87;;;4.13;;
46505;SDS011;32220;49.808;9.968;2022-11-15T16:33:27;4.63;;;4.17;;
46505;SDS011;32220;49.808;9.968;2022-11-15T16:35:56;6.20;;;5.40;;
46505;SDS011;32220;49.808;9.968;2022-11-15T16:38:24;6.97;;;5.00;;
46505;SDS011;32220;49.808;9.968;2022-11-15T16:40:51;4.77;;;4.27;;
46505;SDS011;32220;49.808;9.968;2022-11-15T16:43:19;5.17;;;4.67;;
46505;SDS011;32220;49.808;9.968;2022-11-15T16:45:47;6.20;;;4.83;;
46505;SDS011;32220;49.808;9.968;2022-11-15T16:48:19;5.63;;;4.80;;
46505;SDS011;32220;49.808;9.968;2022-11-15T16:50:50;6.10;;;5.50;;
46505;SDS011;32220;49.808;9.968;2022-11-15T16:53:22;6.83;;;5.87;;
46505;SDS011;32220;49.808;9.968;2022-11-15T16:55:49;6.43;;;5.83;;
46505;SDS011;32220;49.808;9.968;2022-11-15T16:58:17;6.87;;;5.63;;
46505;SDS011;32220;49.808;9.968;2022-11-15T17:00:44;6.60;;;5.50;;
46505;SDS011;32220;49.808;9.968;2022-11-15T17:03:12;5.57;;;4.93;;
46505;SDS011;32220;49.808;9.968;2022-11-15T17:05:39;6.17;;;4.67;;
46505;SDS011;32220;49.808;9.968;2022-11-15T17:08:07;4.73;;;4.23;;
46505;SDS011;32220;49.808;9.968;2022-11-15T17:10:37;6.97;;;5.13;;
46505;SDS011;32220;49.808;9.968;2022-11-15T17:13:07;8.67;;;5.03;;
46505;SDS011;32220;49.808;9.968;2022-11-15T17:15:35;7.53;;;5.90;;
46505;SDS011;32220;49.808;9.968;2022-11-15T17:18:03;6.07;;;4.87;;
46505;SDS011;32220;49.808;9.968;2022-11-15T17:20:31;5.80;;;4.77;;
46505;SDS011;32220;49.808;9.968;2022-11-15T17:22:59;6.00;;;4.60;;
46505;SDS011;32220;49.808;9.968;2022-11-15T17:25:26;5.43;;;4.37;;
46505;SDS011;32220;49.808;9.968;2022-11-15T17:27:56;6.07;;;5.20;;
46505;SDS011;32220;49.808;9.968;2022-11-15T17:30:23;6.00;;;5.03;;
46505;SDS011;32220;49.808;9.968;2022-11-15T17:32:51;6.37;;;5.30;;
46505;SDS011;32220;49.808;9.968;2022-11-15T17:35:19;6.73;;;5.63;;
46505;SDS011;32220;49.808;9.968;2022-11-15T17:37:46;5.97;;;5.20;;
46505;SDS011;32220;49.808;9.968;2022-11-15T17:40:14;5.03;;;4.53;;
46505;SDS011;32220;49.808;9.968;2022-11-15T17:42:42;7.23;;;5.27;;
46505;SDS011;32220;49.808;9.968;2022-11-15T17:45:11;5.30;;;4.37;;
46505;SDS011;32220;49.808;9.968;2022-11-15T17:47:39;5.83;;;5.30;;
46505;SDS011;32220;49.808;9.968;2022-11-15T17:50:07;5.53;;;5.03;;
46505;SDS011;32220;49.808;9.968;2022-11-15T17:52:37;6.57;;;5.87;;
46505;SDS011;32220;49.808;9.968;2022-11-15T17:55:13;7.80;;;6.70;;
46505;SDS011;32220;49.808;9.968;2022-11-15T17:57:58;9.00;;;7.20;;
46505;SDS011;32220;49.808;9.968;2022-11-15T18:01:21;6.50;;;5.80;;
46505;SDS011;32220;49.808;9.968;2022-11-15T18:04:20;7.27;;;6.37;;
46505;SDS011;32220;49.808;9.968;2022-11-15T18:07:10;6.43;;;5.27;;
46505;SDS011;32220;49.808;9.968;2022-11-15T18:10:02;7.73;;;5.30;;
46505;SDS011;32220;49.808;9.968;2022-11-15T18:12:35;6.40;;;5.13;;
46505;SDS011;32220;49.808;9.968;2022-11-15T18:15:17;5.57;;;5.07;;
46505;SDS011;32220;49.808;9.968;2022-11-15T18:17:48;5.80;;;4.67;;
46505;SDS011;32220;49.808;9.968;2022-11-15T18:20:15;5.77;;;4.97;;
46505;SDS011;32220;49.808;9.968;2022-11-15T18:22:43;5.73;;;5.10;;
46505;SDS011;32220;49.808;9.968;2022-11-15T18:25:10;5.27;;;4.43;;
46505;SDS011;32220;49.808;9.968;2022-11-15T18:27:40;5.77;;;5.17;;
46505;SDS011;32220;49.808;9.968;2022-11-15T18:30:08;7.37;;;5.03;;
46505;SDS011;32220;49.808;9.968;2022-11-15T18:32:37;5.77;;;5.23;;
46505;SDS011;32220;49.808;9.968;2022-11-15T18:35:06;5.83;;;4.93;;
46505;SDS011;32220;49.808;9.968;2022-11-15T18:37:37;6.17;;;5.20;;
46505;SDS011;32220;49.808;9.968;2022-11-15T18:40:05;5.57;;;5.07;;
46505;SDS011;32220;49.808;9.968;2022-11-15T18:42:33;5.03;;;4.53;;
46505;SDS011;32220;49.808;9.968;2022-11-15T18:45:01;4.80;;;4.30;;
46505;SDS011;32220;49.808;9.968;2022-11-15T18:47:29;5.00;;;4.50;;
46505;SDS011;32220;49.808;9.968;2022-11-15T18:49:59;5.13;;;4.50;;
46505;SDS011;32220;49.808;9.968;2022-11-15T18:52:29;4.70;;;4.20;;
46505;SDS011;32220;49.808;9.968;2022-11-15T18:54:56;5.30;;;4.77;;
46505;SDS011;32220;49.808;9.968;2022-11-15T18:57:24;5.30;;;4.77;;
46505;SDS011;32220;49.808;9.968;2022-11-15T18:59:51;4.93;;;4.03;;
46505;SDS011;32220;49.808;9.968;2022-11-15T19:02:19;4.73;;;4.30;;
46505;SDS011;32220;49.808;9.968;2022-11-15T19:04:47;4.57;;;4.03;;
46505;SDS011;32220;49.808;9.968;2022-11-15T19:07:14;5.13;;;3.80;;
46505;SDS011;32220;49.808;9.968;2022-11-15T19:09:43;4.63;;;4.13;;
46505;SDS011;32220;49.808;9.968;2022-11-15T19:12:11;4.27;;;3.87;;
46505;SDS011;32220;49.808;9.968;2022-11-15T19:14:39;5.70;;;4.20;;
46505;SDS011;32220;49.808;9.968;2022-11-15T19:17:06;4.63;;;4.07;;
46505;SDS011;32220;49.808;9.968;2022-11-15T19:19:34;7.20;;;4.83;;
46505;SDS011;32220;49.808;9.968;2022-11-15T19:22:02;4.57;;;4.07;;
46505;SDS011;32220;49.808;9.968;2022-11-15T19:24:29;5.13;;;4.60;;
46505;SDS011;32220;49.808;9.968;2022-11-15T19:26:58;4.23;;;3.87;;
46505;SDS011;32220;49.808;9.968;2022-11-15T19:29:26;5.27;;;3.93;;
46505;SDS011;32220;49.808;9.968;2022-11-15T19:31:54;4.87;;;3.97;;
46505;SDS011;32220;49.808;9.968;2022-11-15T19:34:21;6.73;;;4.47;;
46505;SDS011;32220;49.808;9.968;2022-11-15T19:36:49;4.67;;;4.27;;
46505;SDS011;32220;49.808;9.968;2022-11-15T19:39:17;6.00;;;4.17;;
46505;SDS011;32220;49.808;9.968;2022-11-15T19:41:45;5.63;;;4.37;;
46505;SDS011;32220;49.808;9.968;2022-11-15T19:44:14;5.87;;;4.40;;
46505;SDS011;32220;49.808;9.968;2022-11-15T19:46:43;4.83;;;4.37;;
46505;SDS011;32220;49.808;9.968;2022-11-15T19:49:11;5.73;;;4.90;;
46505;SDS011;32220;49.808;9.968;2022-11-15T19:51:39;5.30;;;4.80;;
46505;SDS011;32220;49.808;9.968;2022-11-15T19:54:09;4.07;;;3.70;;
46505;SDS011;32220;49.808;9.968;2022-11-15T19:56:38;5.57;;;4.83;;
46505;SDS011;32220;49.808;9.968;2022-11-15T19:59:05;4.63;;;3.87;;
46505;SDS011;32220;49.808;9.968;2022-11-15T20:01:35;5.57;;;4.20;;
46505;SDS011;32220;49.808;9.968;2022-11-15T20:04:04;5.93;;;4.63;;
46505;SDS011;32220;49.808;9.968;2022-11-15T20:06:33;4.83;;;4.30;;
46505;SDS011;32220;49.808;9.968;2022-11-15T20:09:02;5.23;;;4.73;;
46505;SDS011;32220;49.808;9.968;2022-11-15T20:11:30;5.60;;;4.03;;
46505;SDS011;32220;49.808;9.968;2022-11-15T20:13:59;5.20;;;4.47;;
46505;SDS011;32220;49.808;9.968;2022-11-15T20:16:28;4.73;;;3.87;;
46505;SDS011;32220;49.808;9.968;2022-11-15T20:18:57;6.07;;;4.40;;
